Time;durP1;ratioP1;P1;durP2;ratioP2;P2;SDS_P1;SDS_P2;PMS_P1;PMS_P2;Temp;Humidity;BMP_temperature;BMP_pressure;BME280_temperature;BME280_humidity;BME280_pressure;Samples;Min_cycle;Max_cycle;Signal;HPM_P1;HPM_P2
2022/08/02 01:58:44;;;;;;;0.30;0.30;;;19.50;99.90;21.00;101635.00;;;;5447924;22;19101599;-78
2022/08/02 02:01:55;;;;;;;0.37;0.37;;;19.60;99.90;21.80;101624.00;;;;6279489;22;20242;-78
2022/08/02 02:04:59;;;;;;;0.40;0.40;;;20.00;99.90;21.80;101603.00;;;;6187886;23;20171;-78
2022/08/02 02:08:17;;;;;;;0.30;0.30;;;20.00;99.90;20.60;101609.00;;;;6188193;23;20290;-78
2022/08/02 04:05:44;;;;;;;;;;;;;;;;;;;;;
2022/08/02 04:09:27;;;;;;;;;;;;;;;;;;;;;
2022/08/02 06:50:06;;;;;;;0.10;0.10;;;24.20;99.90;26.70;101701.00;;;;6036300;23;20180;-73
2022/08/02 07:00:50;;;;;;;0.10;0.10;;;23.80;99.90;26.20;101707.00;;;;6066940;23;20180;-75
2022/08/02 07:04:07;;;;;;;0.20;0.20;;;24.40;99.90;25.00;101668.00;;;;6115546;23;20256;-75
2022/08/02 07:07:05;;;;;;;0.80;0.80;;;24.50;99.90;27.60;101699.00;;;;6125520;23;20168;-75
2022/08/02 07:09:45;;;;;;;0.10;0.10;;;25.10;99.90;29.30;101734.00;;;;6195420;23;20188;-75
2022/08/02 07:12:41;;;;;;;0.68;0.68;;;26.90;99.90;28.20;101650.00;;;;6194662;23;20169;-76
2022/08/02 07:15:36;;;;;;;0.10;0.10;;;26.50;99.90;26.70;101706.00;;;;6209806;23;20166;-77
2022/08/02 07:18:23;;;;;;;0.35;0.35;;;25.30;99.90;25.90;101692.00;;;;6219121;23;20536;-75
2022/08/02 07:21:23;;;;;;;0.10;0.10;;;24.80;99.90;23.50;101645.00;;;;6215201;23;20185;-75
2022/08/02 07:24:34;;;;;;;1.48;1.38;;;23.30;99.90;24.00;101659.00;;;;6208288;23;20173;-75
2022/08/02 07:27:34;;;;;;;3.22;2.92;;;23.30;99.90;24.30;101645.00;;;;6243184;22;20176;-84
2022/08/02 07:34:11;;;;;;;0.20;0.20;;;22.00;99.90;26.10;101659.00;;;;6339977;22;20474;-67
2022/08/02 07:36:59;;;;;;;0.50;0.50;;;23.70;99.90;23.60;101653.00;;;;6312478;22;20495;-72
2022/08/02 07:39:38;;;;;;;0.10;0.10;;;23.70;99.90;26.90;101681.00;;;;6312610;22;20167;-72
2022/08/02 07:42:08;;;;;;;4.32;2.65;;;24.40;99.90;26.40;101696.00;;;;6261765;22;20180;-73
2022/08/02 07:44:38;;;;;;;0.10;0.10;;;25.00;99.90;26.50;101705.00;;;;6312739;22;20483;-73
2022/08/02 07:47:45;;;;;;;0.10;0.10;;;25.40;99.90;27.30;101713.00;;;;6286166;22;20209;-72
2022/08/02 07:50:29;;;;;;;0.30;0.30;;;25.40;99.90;26.80;101716.00;;;;6271997;22;20224;-72
2022/08/02 07:54:24;;;;;;;0.52;0.52;;;25.80;99.90;26.90;101711.00;;;;6283837;22;20160;-72
2022/08/02 07:57:43;;;;;;;0.30;0.30;;;25.30;99.90;29.30;101722.00;;;;6206305;22;20494;-73
2022/08/02 08:04:07;;;;;;;0.20;0.20;;;24.40;99.90;27.00;101713.00;;;;6274944;22;20164;-68
2022/08/02 08:07:04;;;;;;;0.40;0.40;;;25.40;99.90;26.40;101708.00;;;;6242695;23;20740;-68
2022/08/02 08:09:43;;;;;;;0.43;0.43;;;25.40;99.90;28.10;101723.00;;;;6218086;23;20196;-70
2022/08/02 08:12:15;;;;;;;0.28;0.28;;;25.80;99.90;29.60;101749.00;;;;6217213;23;20614;-71
2022/08/02 08:14:46;;;;;;;0.22;0.22;;;27.40;99.90;27.30;101697.00;;;;6232123;22;20645;-70
2022/08/02 08:17:24;;;;;;;0.10;0.10;;;26.50;99.90;27.90;101729.00;;;;6267993;22;20601;-66
2022/08/02 08:20:18;;;;;;;0.32;0.32;;;26.40;99.90;26.20;101721.00;;;;6280407;22;20179;-71
2022/08/02 08:22:58;;;;;;;0.32;0.32;;;25.40;99.90;25.70;101724.00;;;;6273933;22;20640;-72
2022/08/02 08:25:55;;;;;;;1.30;1.27;;;25.10;99.90;26.40;101729.00;;;;6249157;22;20176;-71
2022/08/02 08:28:31;;;;;;;0.20;0.20;;;25.00;99.90;26.30;101734.00;;;;6223632;22;20585;-68
2022/08/02 08:31:20;;;;;;;0.10;0.10;;;25.30;99.90;27.30;101718.00;;;;6253892;22;20166;-68
2022/08/02 08:34:01;;;;;;;0.10;0.10;;;26.20;99.90;30.60;101758.00;;;;6254536;22;20535;-66
2022/08/02 08:36:33;;;;;;;0.20;0.20;;;28.10;99.90;27.50;101736.00;;;;6279034;22;20167;-68
2022/08/02 08:39:22;;;;;;;0.10;0.10;;;27.10;99.90;29.30;101752.00;;;;6278489;22;20180;-69
2022/08/02 08:43:02;;;;;;;;;;;;;;;;;;;;;
2022/08/02 08:56:09;;;;;;;1.05;1.02;;;27.40;99.90;25.70;101745.00;;;;5997259;23;20178;-68
2022/08/02 08:58:56;;;;;;;0.20;0.20;;;26.00;99.90;27.00;101742.00;;;;6071104;23;20709;-68
2022/08/02 09:01:50;;;;;;;;;;;;;;;;;;;;;
2022/08/02 09:08:30;;;;;;;0.20;0.20;;;27.60;99.90;29.10;101748.00;;;;6152245;23;20178;-68
2022/08/02 09:11:51;;;;;;;0.10;0.10;;;28.20;99.90;30.00;101737.00;;;;6123748;23;20167;-68
2022/08/02 09:15:18;;;;;;;0.63;0.50;;;28.90;99.90;25.90;101749.00;;;;6152902;23;20160;-68
2022/08/02 09:29:24;;;;;;;0.10;0.10;;;27.30;99.90;30.20;101744.00;;;;6185230;23;20258;-66
2022/08/02 09:32:05;;;;;;;0.30;0.30;;;28.10;99.90;27.00;101756.00;;;;6151787;23;20177;-66
2022/08/02 09:34:51;;;;;;;0.30;0.30;;;26.70;99.90;27.60;101755.00;;;;6132862;23;20155;-66
2022/08/02 09:37:33;;;;;;;0.10;0.10;;;26.50;99.90;28.80;101759.00;;;;6133004;23;20177;-66
2022/08/02 09:40:10;;;;;;;0.20;0.20;;;26.70;99.90;27.90;101758.00;;;;6133192;23;20163;-66
2022/08/02 09:43:01;;;;;;;0.10;0.10;;;27.10;99.90;27.60;101759.00;;;;6157713;23;20213;-66
2022/08/02 09:46:17;;;;;;;0.10;0.10;;;26.40;99.90;27.60;101759.00;;;;6124008;23;20170;-66
2022/08/02 09:48:54;;;;;;;0.40;0.40;;;26.20;99.90;27.00;101773.00;;;;6132688;23;20167;-65
2022/08/02 09:51:28;;;;;;;0.10;0.10;;;26.40;99.90;28.10;101762.00;;;;6157535;23;20163;-65
2022/08/02 09:54:27;;;;;;;0.52;0.45;;;26.50;99.90;26.30;101758.00;;;;6132729;23;20158;-65
2022/08/02 09:57:06;;;;;;;1.20;0.75;;;25.70;99.90;28.00;101755.00;;;;6131219;23;20617;-66
2022/08/02 10:00:00;;;;;;;0.63;0.63;;;26.30;99.90;26.60;101767.00;;;;6132126;23;20162;-70
2022/08/02 10:03:26;;;;;;;0.10;0.10;;;25.60;99.90;28.00;101762.00;;;;6143607;23;20179;-71
2022/08/02 10:06:20;;;;;;;0.30;0.28;;;26.50;99.90;28.10;101759.00;;;;6036175;23;20199;-71
2022/08/02 10:09:06;;;;;;;1.35;0.68;;;27.20;99.90;27.30;101767.00;;;;6180351;23;20171;-70
2022/08/02 10:11:47;;;;;;;0.75;0.63;;;26.40;99.90;27.10;101765.00;;;;6132853;23;20171;-70
2022/08/02 10:15:06;;;;;;;0.20;0.20;;;26.10;99.90;27.00;101762.00;;;;6181861;23;20221;-70
2022/08/02 10:18:08;;;;;;;0.10;0.10;;;25.90;99.90;28.00;101744.00;;;;6157565;23;20201;-70
2022/08/02 10:33:40;;;;;;;0.10;0.10;;;27.10;99.90;30.00;101754.00;;;;4885408;28;5814666;-72
2022/08/02 10:36:18;;;;;;;0.10;0.10;;;27.80;99.90;32.10;101737.00;;;;5068775;28;20656;-72
2022/08/02 10:39:06;;;;;;;0.10;0.10;;;29.80;99.90;31.20;101751.00;;;;5067346;28;20208;-72
2022/08/02 10:42:43;;;;;;;0.10;0.10;;;29.70;99.90;29.50;101752.00;;;;5052456;28;20660;-72
2022/08/02 10:45:52;;;;;;;0.32;0.32;;;29.40;99.90;29.90;101738.00;;;;5043100;28;20198;-72
2022/08/02 10:49:16;;;;;;;0.10;0.10;;;28.40;99.90;30.20;101745.00;;;;5036048;28;20316;-72
2022/08/02 10:52:04;;;;;;;0.20;0.20;;;28.60;99.90;30.40;101753.00;;;;5054718;28;20212;-72
2022/08/02 10:55:22;;;;;;;0.28;0.28;;;28.70;99.90;31.70;101744.00;;;;5068516;28;20225;-72
2022/08/02 10:59:37;;;;;;;2.53;0.57;;;29.50;99.90;31.70;101722.00;;;;5059387;28;20205;-73
2022/08/02 11:03:34;;;;;;;0.10;0.10;;;29.70;99.90;31.30;101735.00;;;;5028294;28;20256;-73
2022/08/02 11:06:17;;;;;;;0.10;0.10;;;30.50;99.90;30.80;101750.00;;;;5071668;28;20187;-73
2022/08/02 11:09:33;;;;;;;0.52;0.52;;;29.40;99.90;29.90;101743.00;;;;5071444;28;20208;-73
2022/08/02 11:12:09;;;;;;;0.55;0.55;;;29.20;99.90;28.60;101719.00;;;;5076565;28;20208;-72
2022/08/02 11:15:07;;;;;;;0.20;0.20;;;28.00;99.90;29.00;101722.00;;;;5054582;28;20559;-73
2022/08/02 11:18:00;;;;;;;0.10;0.10;;;28.00;99.90;30.40;101698.00;;;;5072731;28;20185;-72
